sensor_id;sensor_type;location;lat;lon;timestamp;P1;durP1;ratioP1;P2;durP2;ratioP2
17436;SDS011;8836;52.272;5.134;2022-08-01T00:01:59;3.80;;;3.50;;
17436;SDS011;8836;52.272;5.134;2022-08-01T00:04:26;3.45;;;3.15;;
17436;SDS011;8836;52.272;5.134;2022-08-01T00:06:53;3.38;;;3.08;;
17436;SDS011;8836;52.272;5.134;2022-08-01T00:09:20;3.80;;;3.53;;
17436;SDS011;8836;52.272;5.134;2022-08-01T00:11:47;3.75;;;3.47;;
17436;SDS011;8836;52.272;5.134;2022-08-01T00:14:14;3.42;;;3.13;;
17436;SDS011;8836;52.272;5.134;2022-08-01T00:16:41;3.33;;;3.03;;
17436;SDS011;8836;52.272;5.134;2022-08-01T00:19:09;3.50;;;3.20;;
17436;SDS011;8836;52.272;5.134;2022-08-01T00:21:36;3.03;;;2.80;;
17436;SDS011;8836;52.272;5.134;2022-08-01T00:24:03;3.42;;;3.13;;
17436;SDS011;8836;52.272;5.134;2022-08-01T00:26:31;2.88;;;2.67;;
17436;SDS011;8836;52.272;5.134;2022-08-01T00:28:58;3.15;;;2.85;;
17436;SDS011;8836;52.272;5.134;2022-08-01T00:31:25;3.10;;;2.90;;
17436;SDS011;8836;52.272;5.134;2022-08-01T00:33:52;3.33;;;3.03;;
17436;SDS011;8836;52.272;5.134;2022-08-01T00:36:20;3.67;;;3.33;;
17436;SDS011;8836;52.272;5.134;2022-08-01T00:38:47;3.60;;;3.30;;
17436;SDS011;8836;52.272;5.134;2022-08-01T00:41:17;3.80;;;3.50;;
17436;SDS011;8836;52.272;5.134;2022-08-01T00:43:44;3.25;;;2.95;;
17436;SDS011;8836;52.272;5.134;2022-08-01T00:46:14;3.08;;;2.88;;
17436;SDS011;8836;52.272;5.134;2022-08-01T00:48:41;3.38;;;2.70;;
17436;SDS011;8836;52.272;5.134;2022-08-01T00:51:08;2.97;;;2.78;;
17436;SDS011;8836;52.272;5.134;2022-08-01T00:53:36;3.20;;;3.00;;
17436;SDS011;8836;52.272;5.134;2022-08-01T00:56:04;3.17;;;2.95;;
17436;SDS011;8836;52.272;5.134;2022-08-01T00:58:33;2.70;;;2.50;;
17436;SDS011;8836;52.272;5.134;2022-08-01T01:01:00;3.75;;;3.17;;
17436;SDS011;8836;52.272;5.134;2022-08-01T01:03:27;3.10;;;2.90;;
17436;SDS011;8836;52.272;5.134;2022-08-01T01:05:56;3.20;;;2.95;;
17436;SDS011;8836;52.272;5.134;2022-08-01T01:08:39;2.70;;;2.50;;
17436;SDS011;8836;52.272;5.134;2022-08-01T01:11:21;3.15;;;2.85;;
17436;SDS011;8836;52.272;5.134;2022-08-01T01:14:00;3.70;;;2.92;;
17436;SDS011;8836;52.272;5.134;2022-08-01T01:16:35;3.30;;;3.00;;
17436;SDS011;8836;52.272;5.134;2022-08-01T01:19:08;2.80;;;2.60;;
17436;SDS011;8836;52.272;5.134;2022-08-01T01:21:53;2.95;;;2.75;;
17436;SDS011;8836;52.272;5.134;2022-08-01T01:24:47;2.65;;;2.45;;
17436;SDS011;8836;52.272;5.134;2022-08-01T01:27:35;3.03;;;2.83;;
17436;SDS011;8836;52.272;5.134;2022-08-01T01:30:15;2.88;;;2.58;;
17436;SDS011;8836;52.272;5.134;2022-08-01T01:32:43;2.53;;;2.33;;
17436;SDS011;8836;52.272;5.134;2022-08-01T01:35:15;2.78;;;2.42;;
17436;SDS011;8836;52.272;5.134;2022-08-01T01:37:51;2.55;;;2.35;;
17436;SDS011;8836;52.272;5.134;2022-08-01T01:40:26;1.92;;;1.83;;
17436;SDS011;8836;52.272;5.134;2022-08-01T01:42:55;1.85;;;1.75;;
17436;SDS011;8836;52.272;5.134;2022-08-01T01:45:25;1.80;;;1.70;;
17436;SDS011;8836;52.272;5.134;2022-08-01T01:47:55;1.80;;;1.67;;
17436;SDS011;8836;52.272;5.134;2022-08-01T01:50:25;2.22;;;2.03;;
17436;SDS011;8836;52.272;5.134;2022-08-01T01:52:53;2.40;;;2.20;;
17436;SDS011;8836;52.272;5.134;2022-08-01T01:55:22;1.92;;;1.80;;
17436;SDS011;8836;52.272;5.134;2022-08-01T01:57:52;2.03;;;1.77;;
17436;SDS011;8836;52.272;5.134;2022-08-01T02:00:22;1.73;;;1.63;;
17436;SDS011;8836;52.272;5.134;2022-08-01T02:02:53;1.70;;;1.60;;
17436;SDS011;8836;52.272;5.134;2022-08-01T02:05:22;2.03;;;1.90;;
17436;SDS011;8836;52.272;5.134;2022-08-01T02:07:53;2.03;;;1.70;;
17436;SDS011;8836;52.272;5.134;2022-08-01T02:10:22;1.75;;;1.65;;
17436;SDS011;8836;52.272;5.134;2022-08-01T02:12:51;1.92;;;1.83;;
17436;SDS011;8836;52.272;5.134;2022-08-01T02:15:19;1.73;;;1.63;;
17436;SDS011;8836;52.272;5.134;2022-08-01T02:17:50;1.75;;;1.65;;
17436;SDS011;8836;52.272;5.134;2022-08-01T02:20:20;2.05;;;1.95;;
17436;SDS011;8836;52.272;5.134;2022-08-01T02:22:49;2.15;;;1.90;;
17436;SDS011;8836;52.272;5.134;2022-08-01T02:25:22;2.30;;;2.10;;
17436;SDS011;8836;52.272;5.134;2022-08-01T02:27:56;1.80;;;1.70;;
17436;SDS011;8836;52.272;5.134;2022-08-01T02:30:30;1.95;;;1.85;;
17436;SDS011;8836;52.272;5.134;2022-08-01T02:33:03;2.08;;;1.88;;
17436;SDS011;8836;52.272;5.134;2022-08-01T02:35:37;1.98;;;1.80;;
17436;SDS011;8836;52.272;5.134;2022-08-01T02:38:09;1.80;;;1.70;;
17436;SDS011;8836;52.272;5.134;2022-08-01T02:40:39;1.67;;;1.55;;
17436;SDS011;8836;52.272;5.134;2022-08-01T02:43:12;2.03;;;1.83;;
17436;SDS011;8836;52.272;5.134;2022-08-01T02:45:45;2.08;;;1.85;;
17436;SDS011;8836;52.272;5.134;2022-08-01T02:48:20;2.05;;;1.85;;
17436;SDS011;8836;52.272;5.134;2022-08-01T02:50:52;1.92;;;1.83;;
17436;SDS011;8836;52.272;5.134;2022-08-01T02:53:24;2.10;;;2.00;;
17436;SDS011;8836;52.272;5.134;2022-08-01T02:55:57;2.00;;;1.80;;
17436;SDS011;8836;52.272;5.134;2022-08-01T02:58:26;2.08;;;1.88;;
17436;SDS011;8836;52.272;5.134;2022-08-01T03:00:55;2.05;;;1.83;;
17436;SDS011;8836;52.272;5.134;2022-08-01T03:03:26;2.10;;;1.90;;
17436;SDS011;8836;52.272;5.134;2022-08-01T03:05:54;2.00;;;1.80;;
17436;SDS011;8836;52.272;5.134;2022-08-01T03:08:23;2.63;;;1.85;;
17436;SDS011;8836;52.272;5.134;2022-08-01T03:10:53;2.13;;;1.92;;
17436;SDS011;8836;52.272;5.134;2022-08-01T03:13:22;2.33;;;2.10;;
17436;SDS011;8836;52.272;5.134;2022-08-01T03:15:53;3.55;;;2.20;;
17436;SDS011;8836;52.272;5.134;2022-08-01T03:18:23;2.50;;;2.30;;
17436;SDS011;8836;52.272;5.134;2022-08-01T03:20:55;2.00;;;1.90;;
17436;SDS011;8836;52.272;5.134;2022-08-01T03:23:25;2.42;;;2.22;;
17436;SDS011;8836;52.272;5.134;2022-08-01T03:25:56;2.20;;;1.98;;
17436;SDS011;8836;52.272;5.134;2022-08-01T03:28:25;2.22;;;2.10;;
17436;SDS011;8836;52.272;5.134;2022-08-01T03:30:55;2.70;;;2.22;;
17436;SDS011;8836;52.272;5.134;2022-08-01T03:33:26;2.63;;;2.38;;
17436;SDS011;8836;52.272;5.134;2022-08-01T03:35:53;2.65;;;2.30;;
17436;SDS011;8836;52.272;5.134;2022-08-01T03:38:23;2.40;;;2.20;;
17436;SDS011;8836;52.272;5.134;2022-08-01T03:40:53;2.63;;;2.42;;
17436;SDS011;8836;52.272;5.134;2022-08-01T03:43:26;3.25;;;2.50;;
17436;SDS011;8836;52.272;5.134;2022-08-01T03:46:03;2.58;;;2.38;;
17436;SDS011;8836;52.272;5.134;2022-08-01T03:48:36;2.70;;;2.50;;
17436;SDS011;8836;52.272;5.134;2022-08-01T03:51:07;3.25;;;2.50;;
17436;SDS011;8836;52.272;5.134;2022-08-01T03:53:36;2.60;;;2.40;;
17436;SDS011;8836;52.272;5.134;2022-08-01T03:56:05;2.25;;;2.05;;
17436;SDS011;8836;52.272;5.134;2022-08-01T03:58:36;2.60;;;1.90;;
17436;SDS011;8836;52.272;5.134;2022-08-01T04:01:06;2.35;;;2.15;;
17436;SDS011;8836;52.272;5.134;2022-08-01T04:03:36;2.17;;;1.98;;
17436;SDS011;8836;52.272;5.134;2022-08-01T04:06:04;2.60;;;2.40;;
17436;SDS011;8836;52.272;5.134;2022-08-01T04:08:34;2.40;;;2.20;;
17436;SDS011;8836;52.272;5.134;2022-08-01T04:11:01;2.40;;;2.00;;
17436;SDS011;8836;52.272;5.134;2022-08-01T04:13:28;3.63;;;2.20;;
17436;SDS011;8836;52.272;5.134;2022-08-01T04:15:57;2.20;;;2.00;;
17436;SDS011;8836;52.272;5.134;2022-08-01T04:18:25;2.58;;;2.38;;
17436;SDS011;8836;52.272;5.134;2022-08-01T04:20:54;2.55;;;2.35;;
17436;SDS011;8836;52.272;5.134;2022-08-01T04:23:22;2.30;;;1.98;;
17436;SDS011;8836;52.272;5.134;2022-08-01T04:25:52;1.60;;;1.50;;
17436;SDS011;8836;52.272;5.134;2022-08-01T04:28:21;1.55;;;1.40;;
17436;SDS011;8836;52.272;5.134;2022-08-01T04:30:52;1.60;;;1.20;;
17436;SDS011;8836;52.272;5.134;2022-08-01T04:33:22;1.13;;;0.93;;
17436;SDS011;8836;52.272;5.134;2022-08-01T04:35:51;1.38;;;0.90;;
17436;SDS011;8836;52.272;5.134;2022-08-01T04:38:23;0.95;;;0.80;;
17436;SDS011;8836;52.272;5.134;2022-08-01T04:40:54;1.65;;;0.80;;
17436;SDS011;8836;52.272;5.134;2022-08-01T04:43:24;0.90;;;0.80;;
17436;SDS011;8836;52.272;5.134;2022-08-01T04:45:51;0.80;;;0.80;;
17436;SDS011;8836;52.272;5.134;2022-08-01T04:48:18;1.17;;;0.75;;
17436;SDS011;8836;52.272;5.134;2022-08-01T04:50:49;0.82;;;0.82;;
17436;SDS011;8836;52.272;5.134;2022-08-01T04:53:18;0.98;;;0.70;;
17436;SDS011;8836;52.272;5.134;2022-08-01T04:55:47;0.80;;;0.80;;
17436;SDS011;8836;52.272;5.134;2022-08-01T04:58:17;0.80;;;0.80;;
17436;SDS011;8836;52.272;5.134;2022-08-01T05:00:44;0.80;;;0.80;;
17436;SDS011;8836;52.272;5.134;2022-08-01T05:03:12;0.90;;;0.70;;
17436;SDS011;8836;52.272;5.134;2022-08-01T05:05:39;0.80;;;0.80;;
17436;SDS011;8836;52.272;5.134;2022-08-01T05:08:06;1.02;;;0.90;;
17436;SDS011;8836;52.272;5.134;2022-08-01T05:10:37;1.10;;;1.00;;
17436;SDS011;8836;52.272;5.134;2022-08-01T05:13:04;1.33;;;0.93;;
17436;SDS011;8836;52.272;5.134;2022-08-01T05:15:32;1.08;;;0.95;;
17436;SDS011;8836;52.272;5.134;2022-08-01T05:18:01;1.10;;;0.98;;
17436;SDS011;8836;52.272;5.134;2022-08-01T05:20:29;1.27;;;1.00;;
17436;SDS011;8836;52.272;5.134;2022-08-01T05:22:56;0.95;;;0.80;;
17436;SDS011;8836;52.272;5.134;2022-08-01T05:25:23;0.93;;;0.90;;
17436;SDS011;8836;52.272;5.134;2022-08-01T05:27:52;1.08;;;0.80;;
17436;SDS011;8836;52.272;5.134;2022-08-01T05:30:18;0.95;;;0.93;;
17436;SDS011;8836;52.272;5.134;2022-08-01T05:32:46;0.80;;;0.80;;
17436;SDS011;8836;52.272;5.134;2022-08-01T05:35:13;0.80;;;0.80;;
17436;SDS011;8836;52.272;5.134;2022-08-01T05:37:40;1.67;;;0.98;;
17436;SDS011;8836;52.272;5.134;2022-08-01T05:40:07;1.08;;;0.90;;
17436;SDS011;8836;52.272;5.134;2022-08-01T05:42:35;1.10;;;1.00;;
17436;SDS011;8836;52.272;5.134;2022-08-01T05:45:04;2.03;;;1.10;;
17436;SDS011;8836;52.272;5.134;2022-08-01T05:47:32;0.90;;;0.90;;
17436;SDS011;8836;52.272;5.134;2022-08-01T05:49:59;1.40;;;1.20;;
17436;SDS011;8836;52.272;5.134;2022-08-01T05:52:26;1.23;;;1.13;;
17436;SDS011;8836;52.272;5.134;2022-08-01T05:54:53;1.10;;;1.00;;
17436;SDS011;8836;52.272;5.134;2022-08-01T05:57:20;1.42;;;1.17;;
17436;SDS011;8836;52.272;5.134;2022-08-01T05:59:47;1.40;;;1.10;;
17436;SDS011;8836;52.272;5.134;2022-08-01T06:02:16;1.52;;;1.10;;
17436;SDS011;8836;52.272;5.134;2022-08-01T06:04:43;1.10;;;1.10;;
17436;SDS011;8836;52.272;5.134;2022-08-01T06:07:13;1.27;;;1.08;;
17436;SDS011;8836;52.272;5.134;2022-08-01T06:09:41;1.23;;;1.05;;
17436;SDS011;8836;52.272;5.134;2022-08-01T06:12:08;1.85;;;1.00;;
17436;SDS011;8836;52.272;5.134;2022-08-01T06:14:35;1.98;;;1.10;;
17436;SDS011;8836;52.272;5.134;2022-08-01T06:17:02;1.15;;;1.05;;
17436;SDS011;8836;52.272;5.134;2022-08-01T06:19:30;1.10;;;1.00;;
17436;SDS011;8836;52.272;5.134;2022-08-01T06:21:57;0.90;;;0.80;;
17436;SDS011;8836;52.272;5.134;2022-08-01T06:24:24;1.42;;;1.20;;
17436;SDS011;8836;52.272;5.134;2022-08-01T06:26:51;0.90;;;0.90;;
17436;SDS011;8836;52.272;5.134;2022-08-01T06:29:18;2.05;;;1.00;;
17436;SDS011;8836;52.272;5.134;2022-08-01T06:31:45;1.88;;;0.90;;
17436;SDS011;8836;52.272;5.134;2022-08-01T06:34:12;0.70;;;0.70;;
17436;SDS011;8836;52.272;5.134;2022-08-01T06:36:41;2.33;;;0.90;;
17436;SDS011;8836;52.272;5.134;2022-08-01T06:39:08;1.02;;;0.70;;
17436;SDS011;8836;52.272;5.134;2022-08-01T06:41:35;1.58;;;1.02;;
17436;SDS011;8836;52.272;5.134;2022-08-01T06:44:02;1.15;;;0.98;;
17436;SDS011;8836;52.272;5.134;2022-08-01T06:46:30;1.00;;;0.90;;
17436;SDS011;8836;52.272;5.134;2022-08-01T06:48:57;1.85;;;1.05;;
17436;SDS011;8836;52.272;5.134;2022-08-01T06:51:24;1.63;;;1.00;;
17436;SDS011;8836;52.272;5.134;2022-08-01T06:53:53;1.10;;;1.00;;
17436;SDS011;8836;52.272;5.134;2022-08-01T06:56:20;1.25;;;1.00;;
17436;SDS011;8836;52.272;5.134;2022-08-01T06:58:47;1.00;;;1.00;;
17436;SDS011;8836;52.272;5.134;2022-08-01T07:01:15;1.40;;;1.10;;
17436;SDS011;8836;52.272;5.134;2022-08-01T07:03:42;1.38;;;1.20;;
17436;SDS011;8836;52.272;5.134;2022-08-01T07:06:11;1.40;;;1.00;;
17436;SDS011;8836;52.272;5.134;2022-08-01T07:08:39;1.58;;;1.38;;
17436;SDS011;8836;52.272;5.134;2022-08-01T07:11:08;1.80;;;1.20;;
17436;SDS011;8836;52.272;5.134;2022-08-01T07:13:35;2.25;;;1.40;;
17436;SDS011;8836;52.272;5.134;2022-08-01T07:16:02;2.30;;;1.20;;
17436;SDS011;8836;52.272;5.134;2022-08-01T07:18:30;1.50;;;1.10;;
17436;SDS011;8836;52.272;5.134;2022-08-01T07:20:57;2.90;;;1.55;;
17436;SDS011;8836;52.272;5.134;2022-08-01T07:23:24;2.58;;;1.30;;
17436;SDS011;8836;52.272;5.134;2022-08-01T07:25:51;3.08;;;1.52;;
17436;SDS011;8836;52.272;5.134;2022-08-01T07:28:19;4.47;;;1.98;;
17436;SDS011;8836;52.272;5.134;2022-08-01T07:30:46;5.45;;;2.00;;
17436;SDS011;8836;52.272;5.134;2022-08-01T07:33:13;5.38;;;1.88;;
17436;SDS011;8836;52.272;5.134;2022-08-01T07:35:41;4.22;;;1.80;;
17436;SDS011;8836;52.272;5.134;2022-08-01T07:38:08;6.80;;;2.20;;
17436;SDS011;8836;52.272;5.134;2022-08-01T07:40:35;8.25;;;2.35;;
17436;SDS011;8836;52.272;5.134;2022-08-01T07:43:02;4.65;;;2.10;;
17436;SDS011;8836;52.272;5.134;2022-08-01T07:45:30;6.05;;;2.20;;
17436;SDS011;8836;52.272;5.134;2022-08-01T07:48:01;3.40;;;1.90;;
17436;SDS011;8836;52.272;5.134;2022-08-01T07:50:29;3.55;;;1.50;;
17436;SDS011;8836;52.272;5.134;2022-08-01T07:52:56;3.38;;;1.67;;
17436;SDS011;8836;52.272;5.134;2022-08-01T07:55:23;3.53;;;2.10;;
17436;SDS011;8836;52.272;5.134;2022-08-01T07:57:50;4.63;;;2.30;;
17436;SDS011;8836;52.272;5.134;2022-08-01T08:00:17;4.65;;;1.58;;
17436;SDS011;8836;52.272;5.134;2022-08-01T08:02:45;5.10;;;1.92;;
17436;SDS011;8836;52.272;5.134;2022-08-01T08:05:13;3.75;;;1.50;;
17436;SDS011;8836;52.272;5.134;2022-08-01T08:07:42;3.65;;;1.85;;
17436;SDS011;8836;52.272;5.134;2022-08-01T08:10:10;4.45;;;1.90;;
17436;SDS011;8836;52.272;5.134;2022-08-01T08:12:37;6.35;;;2.33;;
17436;SDS011;8836;52.272;5.134;2022-08-01T08:15:04;5.18;;;2.30;;
17436;SDS011;8836;52.272;5.134;2022-08-01T08:17:32;8.75;;;3.25;;
17436;SDS011;8836;52.272;5.134;2022-08-01T08:20:02;8.95;;;2.70;;
17436;SDS011;8836;52.272;5.134;2022-08-01T08:22:31;6.43;;;2.03;;
17436;SDS011;8836;52.272;5.134;2022-08-01T08:24:58;5.53;;;1.90;;
17436;SDS011;8836;52.272;5.134;2022-08-01T08:27:25;4.93;;;1.80;;
17436;SDS011;8836;52.272;5.134;2022-08-01T08:29:52;4.72;;;1.85;;
17436;SDS011;8836;52.272;5.134;2022-08-01T08:32:19;4.18;;;2.10;;
17436;SDS011;8836;52.272;5.134;2022-08-01T08:34:46;5.47;;;1.65;;
17436;SDS011;8836;52.272;5.134;2022-08-01T08:37:18;3.83;;;1.73;;
17436;SDS011;8836;52.272;5.134;2022-08-01T08:39:45;3.10;;;1.55;;
17436;SDS011;8836;52.272;5.134;2022-08-01T08:42:12;4.82;;;2.00;;
17436;SDS011;8836;52.272;5.134;2022-08-01T08:44:40;4.93;;;1.63;;
17436;SDS011;8836;52.272;5.134;2022-08-01T08:47:08;11.27;;;2.50;;
17436;SDS011;8836;52.272;5.134;2022-08-01T08:49:38;10.43;;;2.08;;
17436;SDS011;8836;52.272;5.134;2022-08-01T08:52:09;5.50;;;1.90;;
17436;SDS011;8836;52.272;5.134;2022-08-01T08:54:39;5.22;;;1.60;;
17436;SDS011;8836;52.272;5.134;2022-08-01T08:57:08;5.43;;;1.70;;
17436;SDS011;8836;52.272;5.134;2022-08-01T08:59:39;7.90;;;2.20;;
17436;SDS011;8836;52.272;5.134;2022-08-01T09:02:08;5.03;;;1.80;;
17436;SDS011;8836;52.272;5.134;2022-08-01T09:04:37;6.57;;;1.73;;
17436;SDS011;8836;52.272;5.134;2022-08-01T09:07:05;8.80;;;2.33;;
17436;SDS011;8836;52.272;5.134;2022-08-01T09:09:33;7.30;;;2.50;;
17436;SDS011;8836;52.272;5.134;2022-08-01T09:12:03;5.88;;;1.92;;
17436;SDS011;8836;52.272;5.134;2022-08-01T09:14:31;3.97;;;1.80;;
17436;SDS011;8836;52.272;5.134;2022-08-01T09:17:01;4.93;;;1.52;;
17436;SDS011;8836;52.272;5.134;2022-08-01T09:19:34;6.10;;;1.55;;
17436;SDS011;8836;52.272;5.134;2022-08-01T09:22:04;3.55;;;1.52;;
17436;SDS011;8836;52.272;5.134;2022-08-01T09:24:34;3.67;;;1.80;;
17436;SDS011;8836;52.272;5.134;2022-08-01T09:27:02;3.35;;;1.52;;
17436;SDS011;8836;52.272;5.134;2022-08-01T09:29:45;3.10;;;1.27;;
17436;SDS011;8836;52.272;5.134;2022-08-01T09:32:12;5.28;;;1.63;;
17436;SDS011;8836;52.272;5.134;2022-08-01T09:34:39;4.65;;;1.42;;
17436;SDS011;8836;52.272;5.134;2022-08-01T09:37:06;4.22;;;1.70;;
17436;SDS011;8836;52.272;5.134;2022-08-01T09:39:34;4.15;;;1.45;;
17436;SDS011;8836;52.272;5.134;2022-08-01T09:42:19;2.05;;;1.15;;
17436;SDS011;8836;52.272;5.134;2022-08-01T09:44:49;2.67;;;1.20;;
17436;SDS011;8836;52.272;5.134;2022-08-01T09:47:16;5.28;;;1.20;;
17436;SDS011;8836;52.272;5.134;2022-08-01T09:49:54;3.83;;;1.55;;
17436;SDS011;8836;52.272;5.134;2022-08-01T09:52:23;4.78;;;1.98;;
17436;SDS011;8836;52.272;5.134;2022-08-01T09:54:52;4.97;;;1.60;;
17436;SDS011;8836;52.272;5.134;2022-08-01T09:57:24;5.85;;;1.98;;
17436;SDS011;8836;52.272;5.134;2022-08-01T09:59:53;4.95;;;1.90;;
17436;SDS011;8836;52.272;5.134;2022-08-01T10:02:31;5.35;;;1.70;;
17436;SDS011;8836;52.272;5.134;2022-08-01T10:05:01;4.72;;;1.98;;
17436;SDS011;8836;52.272;5.134;2022-08-01T10:07:30;4.43;;;1.50;;
17436;SDS011;8836;52.272;5.134;2022-08-01T10:10:01;4.18;;;1.45;;
17436;SDS011;8836;52.272;5.134;2022-08-01T10:12:39;4.50;;;1.60;;
17436;SDS011;8836;52.272;5.134;2022-08-01T10:15:08;4.28;;;1.48;;
17436;SDS011;8836;52.272;5.134;2022-08-01T10:17:36;4.20;;;1.55;;
17436;SDS011;8836;52.272;5.134;2022-08-01T10:20:11;3.38;;;1.65;;
17436;SDS011;8836;52.272;5.134;2022-08-01T10:22:41;4.47;;;1.50;;
17436;SDS011;8836;52.272;5.134;2022-08-01T10:25:10;2.50;;;1.40;;
17436;SDS011;8836;52.272;5.134;2022-08-01T10:27:41;4.22;;;1.67;;
17436;SDS011;8836;52.272;5.134;2022-08-01T10:30:11;3.30;;;1.50;;
17436;SDS011;8836;52.272;5.134;2022-08-01T10:32:40;3.85;;;1.63;;
17436;SDS011;8836;52.272;5.134;2022-08-01T10:35:09;5.97;;;1.83;;
17436;SDS011;8836;52.272;5.134;2022-08-01T10:37:41;5.68;;;1.90;;
17436;SDS011;8836;52.272;5.134;2022-08-01T10:40:11;4.68;;;1.75;;
17436;SDS011;8836;52.272;5.134;2022-08-01T10:42:40;5.43;;;1.90;;
17436;SDS011;8836;52.272;5.134;2022-08-01T10:45:12;6.80;;;2.40;;
17436;SDS011;8836;52.272;5.134;2022-08-01T10:47:42;5.65;;;1.52;;
17436;SDS011;8836;52.272;5.134;2022-08-01T10:50:19;3.80;;;1.80;;
17436;SDS011;8836;52.272;5.134;2022-08-01T10:53:06;5.90;;;1.90;;
17436;SDS011;8836;52.272;5.134;2022-08-01T10:55:49;5.68;;;1.80;;
17436;SDS011;8836;52.272;5.134;2022-08-01T10:58:25;4.03;;;1.67;;
17436;SDS011;8836;52.272;5.134;2022-08-01T11:04:08;6.28;;;1.80;;
17436;SDS011;8836;52.272;5.134;2022-08-01T11:06:39;6.10;;;2.15;;
17436;SDS011;8836;52.272;5.134;2022-08-01T11:09:24;4.40;;;1.70;;
17436;SDS011;8836;52.272;5.134;2022-08-01T11:11:59;6.28;;;1.92;;
17436;SDS011;8836;52.272;5.134;2022-08-01T11:14:32;6.72;;;2.30;;
17436;SDS011;8836;52.272;5.134;2022-08-01T11:20:05;5.10;;;1.60;;
17436;SDS011;8836;52.272;5.134;2022-08-01T11:26:06;3.75;;;1.42;;
17436;SDS011;8836;52.272;5.134;2022-08-01T11:28:43;3.22;;;1.10;;
17436;SDS011;8836;52.272;5.134;2022-08-01T11:31:34;5.25;;;1.58;;
17436;SDS011;8836;52.272;5.134;2022-08-01T11:34:01;5.55;;;1.73;;
17436;SDS011;8836;52.272;5.134;2022-08-01T11:36:28;4.35;;;1.58;;
17436;SDS011;8836;52.272;5.134;2022-08-01T11:39:12;4.97;;;1.70;;
17436;SDS011;8836;52.272;5.134;2022-08-01T11:41:45;3.35;;;1.50;;
17436;SDS011;8836;52.272;5.134;2022-08-01T11:44:20;6.53;;;1.88;;
17436;SDS011;8836;52.272;5.134;2022-08-01T11:46:57;2.38;;;1.50;;
17436;SDS011;8836;52.272;5.134;2022-08-01T11:49:33;3.67;;;1.25;;
17436;SDS011;8836;52.272;5.134;2022-08-01T11:52:16;3.60;;;1.45;;
17436;SDS011;8836;52.272;5.134;2022-08-01T11:54:49;2.05;;;1.13;;
17436;SDS011;8836;52.272;5.134;2022-08-01T11:57:19;3.13;;;1.40;;
17436;SDS011;8836;52.272;5.134;2022-08-01T11:59:48;2.70;;;1.50;;
17436;SDS011;8836;52.272;5.134;2022-08-01T12:02:22;4.88;;;1.67;;
17436;SDS011;8836;52.272;5.134;2022-08-01T12:04:53;3.22;;;1.48;;
17436;SDS011;8836;52.272;5.134;2022-08-01T12:07:27;3.25;;;1.30;;
17436;SDS011;8836;52.272;5.134;2022-08-01T12:09:57;1.77;;;1.15;;
17436;SDS011;8836;52.272;5.134;2022-08-01T12:12:27;2.83;;;1.38;;
17436;SDS011;8836;52.272;5.134;2022-08-01T12:14:56;3.45;;;1.30;;
17436;SDS011;8836;52.272;5.134;2022-08-01T12:17:31;5.28;;;1.33;;
17436;SDS011;8836;52.272;5.134;2022-08-01T12:20:01;2.33;;;1.30;;
17436;SDS011;8836;52.272;5.134;2022-08-01T12:22:31;3.50;;;1.05;;
17436;SDS011;8836;52.272;5.134;2022-08-01T12:25:04;2.35;;;1.13;;
17436;SDS011;8836;52.272;5.134;2022-08-01T12:27:36;3.25;;;1.40;;
17436;SDS011;8836;52.272;5.134;2022-08-01T12:30:05;2.78;;;1.05;;
17436;SDS011;8836;52.272;5.134;2022-08-01T12:32:39;2.72;;;1.30;;
17436;SDS011;8836;52.272;5.134;2022-08-01T12:35:08;3.00;;;1.35;;
17436;SDS011;8836;52.272;5.134;2022-08-01T12:37:39;2.50;;;1.27;;
17436;SDS011;8836;52.272;5.134;2022-08-01T12:40:10;4.55;;;1.83;;
17436;SDS011;8836;52.272;5.134;2022-08-01T12:42:41;1.65;;;1.10;;
17436;SDS011;8836;52.272;5.134;2022-08-01T12:45:14;3.53;;;1.33;;
17436;SDS011;8836;52.272;5.134;2022-08-01T12:47:51;2.13;;;1.10;;
17436;SDS011;8836;52.272;5.134;2022-08-01T12:50:20;3.53;;;1.13;;
17436;SDS011;8836;52.272;5.134;2022-08-01T12:52:50;1.42;;;0.80;;
17436;SDS011;8836;52.272;5.134;2022-08-01T12:55:18;2.08;;;0.88;;
17436;SDS011;8836;52.272;5.134;2022-08-01T12:57:47;2.42;;;1.30;;
17436;SDS011;8836;52.272;5.134;2022-08-01T13:00:21;2.33;;;0.95;;
17436;SDS011;8836;52.272;5.134;2022-08-01T13:03:00;1.67;;;0.98;;
17436;SDS011;8836;52.272;5.134;2022-08-01T13:05:40;2.00;;;0.85;;
17436;SDS011;8836;52.272;5.134;2022-08-01T13:08:10;1.45;;;0.75;;
17436;SDS011;8836;52.272;5.134;2022-08-01T13:10:38;0.73;;;0.68;;
17436;SDS011;8836;52.272;5.134;2022-08-01T13:13:07;1.92;;;0.90;;
17436;SDS011;8836;52.272;5.134;2022-08-01T13:15:36;1.25;;;0.90;;
17436;SDS011;8836;52.272;5.134;2022-08-01T13:21:09;1.90;;;0.82;;
17436;SDS011;8836;52.272;5.134;2022-08-01T13:23:37;2.20;;;0.90;;
17436;SDS011;8836;52.272;5.134;2022-08-01T13:26:06;1.98;;;0.85;;
17436;SDS011;8836;52.272;5.134;2022-08-01T13:28:33;2.28;;;0.88;;
17436;SDS011;8836;52.272;5.134;2022-08-01T13:31:02;1.88;;;1.15;;
17436;SDS011;8836;52.272;5.134;2022-08-01T13:33:43;2.72;;;1.00;;
17436;SDS011;8836;52.272;5.134;2022-08-01T13:36:13;2.20;;;1.00;;
17436;SDS011;8836;52.272;5.134;2022-08-01T13:38:41;2.05;;;1.23;;
17436;SDS011;8836;52.272;5.134;2022-08-01T13:41:26;2.00;;;0.88;;
17436;SDS011;8836;52.272;5.134;2022-08-01T13:43:53;1.38;;;0.80;;
17436;SDS011;8836;52.272;5.134;2022-08-01T13:46:20;2.28;;;0.85;;
17436;SDS011;8836;52.272;5.134;2022-08-01T13:48:48;1.85;;;0.80;;
17436;SDS011;8836;52.272;5.134;2022-08-01T13:51:15;1.85;;;0.90;;
17436;SDS011;8836;52.272;5.134;2022-08-01T13:53:42;1.35;;;0.80;;
17436;SDS011;8836;52.272;5.134;2022-08-01T13:56:10;1.27;;;0.73;;
17436;SDS011;8836;52.272;5.134;2022-08-01T13:58:37;1.95;;;1.08;;
17436;SDS011;8836;52.272;5.134;2022-08-01T14:01:04;1.98;;;1.00;;
17436;SDS011;8836;52.272;5.134;2022-08-01T14:03:30;2.33;;;0.90;;
17436;SDS011;8836;52.272;5.134;2022-08-01T14:05:59;2.17;;;1.00;;
17436;SDS011;8836;52.272;5.134;2022-08-01T14:08:26;1.75;;;1.05;;
17436;SDS011;8836;52.272;5.134;2022-08-01T14:10:54;1.33;;;0.80;;
17436;SDS011;8836;52.272;5.134;2022-08-01T14:13:23;1.77;;;0.90;;
17436;SDS011;8836;52.272;5.134;2022-08-01T14:15:51;2.25;;;0.73;;
17436;SDS011;8836;52.272;5.134;2022-08-01T14:18:18;1.55;;;0.80;;
17436;SDS011;8836;52.272;5.134;2022-08-01T14:20:46;2.10;;;0.68;;
17436;SDS011;8836;52.272;5.134;2022-08-01T14:23:15;2.28;;;0.90;;
17436;SDS011;8836;52.272;5.134;2022-08-01T14:25:42;1.70;;;0.70;;
17436;SDS011;8836;52.272;5.134;2022-08-01T14:28:09;2.80;;;0.80;;
17436;SDS011;8836;52.272;5.134;2022-08-01T14:30:36;4.20;;;1.05;;
17436;SDS011;8836;52.272;5.134;2022-08-01T14:33:03;1.60;;;0.75;;
17436;SDS011;8836;52.272;5.134;2022-08-01T14:35:30;1.65;;;0.85;;
17436;SDS011;8836;52.272;5.134;2022-08-01T14:37:57;3.22;;;1.08;;
17436;SDS011;8836;52.272;5.134;2022-08-01T14:40:26;3.88;;;0.90;;
17436;SDS011;8836;52.272;5.134;2022-08-01T14:42:53;2.00;;;0.75;;
17436;SDS011;8836;52.272;5.134;2022-08-01T14:45:20;1.83;;;0.70;;
17436;SDS011;8836;52.272;5.134;2022-08-01T14:47:48;2.67;;;1.40;;
17436;SDS011;8836;52.272;5.134;2022-08-01T14:50:15;2.25;;;1.05;;
17436;SDS011;8836;52.272;5.134;2022-08-01T14:52:42;1.38;;;0.82;;
17436;SDS011;8836;52.272;5.134;2022-08-01T14:55:09;1.67;;;0.90;;
17436;SDS011;8836;52.272;5.134;2022-08-01T14:57:39;2.65;;;1.00;;
17436;SDS011;8836;52.272;5.134;2022-08-01T15:00:07;2.08;;;0.70;;
17436;SDS011;8836;52.272;5.134;2022-08-01T15:02:37;1.17;;;0.60;;
17436;SDS011;8836;52.272;5.134;2022-08-01T15:05:05;1.33;;;0.82;;
17436;SDS011;8836;52.272;5.134;2022-08-01T15:07:35;2.08;;;1.00;;
17436;SDS011;8836;52.272;5.134;2022-08-01T15:10:03;3.05;;;0.80;;
17436;SDS011;8836;52.272;5.134;2022-08-01T15:12:31;1.25;;;0.75;;
17436;SDS011;8836;52.272;5.134;2022-08-01T15:15:00;2.53;;;0.80;;
17436;SDS011;8836;52.272;5.134;2022-08-01T15:17:28;2.67;;;0.98;;
17436;SDS011;8836;52.272;5.134;2022-08-01T15:19:59;2.60;;;1.10;;
17436;SDS011;8836;52.272;5.134;2022-08-01T15:22:29;2.33;;;1.05;;
17436;SDS011;8836;52.272;5.134;2022-08-01T15:24:57;2.97;;;0.93;;
17436;SDS011;8836;52.272;5.134;2022-08-01T15:27:25;2.58;;;1.02;;
17436;SDS011;8836;52.272;5.134;2022-08-01T15:29:54;1.85;;;0.90;;